Time;durP1;ratioP1;P1;durP2;ratioP2;P2;SDS_P1;SDS_P2;PMS_P1;PMS_P2;Temp;Humidity;BMP_temperature;BMP_pressure;BME280_temperature;BME280_humidity;BME280_pressure;Samples;Min_cycle;Max_cycle;Signal;HPM_P1;HPM_P2
2022/11/24 00:01:10;;;;;;;12.82;3.05;;;;;;;4.88;100.00;94739.34;5053013;28;20123;-76
2022/11/24 00:03:36;;;;;;;9.38;3.33;;;;;;;5.00;100.00;94742.53;5043038;28;20131;-75
2022/11/24 00:06:07;;;;;;;8.98;2.80;;;;;;;5.06;100.00;94750.38;5049983;28;20037;-75
2022/11/24 00:08:34;;;;;;;11.15;3.35;;;;;;;5.00;100.00;94742.53;5051425;28;20040;-75
2022/11/24 00:11:09;;;;;;;5.95;2.50;;;;;;;4.94;100.00;94754.00;5051124;28;20092;-75
2022/11/24 00:13:37;;;;;;;8.63;2.88;;;;;;;4.96;100.00;94749.31;5044484;28;20060;-75
2022/11/24 00:16:15;;;;;;;6.60;2.38;;;;;;;4.98;100.00;94744.59;5032882;28;20046;-74
2022/11/24 00:18:42;;;;;;;12.88;2.90;;;;;;;4.92;100.00;94755.28;5046943;28;20537;-75
2022/11/24 00:21:08;;;;;;;10.20;2.58;;;;;;;5.00;100.00;94758.19;5051618;28;20041;-75
2022/11/24 00:23:34;;;;;;;15.15;3.30;;;;;;;4.89;100.00;94753.94;5049517;28;20048;-75
2022/11/24 00:26:12;;;;;;;20.42;3.42;;;;;;;4.94;100.00;94756.59;5048484;28;20076;-75
2022/11/24 00:28:39;;;;;;;6.85;2.70;;;;;;;4.90;100.00;94755.53;5051829;28;20091;-76
2022/11/24 00:31:14;;;;;;;7.90;2.90;;;;;;;4.90;100.00;94768.56;5051642;28;20550;-76
2022/11/24 00:33:39;;;;;;;15.02;3.47;;;;;;;4.87;100.00;94758.66;5048602;28;20052;-75
2022/11/24 00:36:05;;;;;;;8.90;2.38;;;;;;;4.91;100.00;94770.13;5046912;28;20513;-75
2022/11/24 00:38:30;;;;;;;14.25;2.88;;;;;;;4.87;100.00;94774.28;5051821;28;20033;-75
2022/11/24 00:40:56;;;;;;;8.90;2.92;;;;;;;4.86;100.00;94780.53;5051772;28;20033;-75
2022/11/24 00:43:21;;;;;;;16.83;3.00;;;;;;;4.91;100.00;94784.97;5051298;28;20047;-76
2022/11/24 00:45:47;;;;;;;5.32;2.35;;;;;;;4.93;100.00;94788.91;5045062;28;20041;-76
2022/11/24 00:48:13;;;;;;;7.43;2.35;;;;;;;4.89;100.00;94808.69;5037236;28;20037;-75
2022/11/24 00:50:38;;;;;;;7.63;2.70;;;;;;;4.88;100.00;94791.47;5044928;28;20064;-75
2022/11/24 00:53:04;;;;;;;6.97;2.10;;;;;;;4.88;100.00;94803.75;5051950;28;20068;-75
2022/11/24 00:55:30;;;;;;;12.57;2.80;;;;;;;4.97;100.00;94800.41;5042373;28;20048;-76
2022/11/24 00:57:55;;;;;;;12.38;2.83;;;;;;;4.94;100.00;94800.94;5051778;28;20048;-76
2022/11/24 01:00:21;;;;;;;11.85;2.70;;;;;;;4.77;100.00;94810.69;5051352;28;20107;-76
2022/11/24 01:02:46;;;;;;;14.73;3.45;;;;;;;4.73;100.00;94814.84;5048466;28;20454;-76
2022/11/24 01:05:12;;;;;;;10.32;2.95;;;;;;;4.85;100.00;94823.28;5047763;28;20041;-76
2022/11/24 01:07:37;;;;;;;9.90;2.97;;;;;;;4.85;100.00;94821.44;5051953;28;20068;-75
2022/11/24 01:10:03;;;;;;;10.98;2.40;;;;;;;4.85;100.00;94829.25;5051091;28;20037;-75
2022/11/24 01:12:29;;;;;;;13.63;2.78;;;;;;;4.81;100.00;94828.22;5048295;28;20317;-76
2022/11/24 01:14:55;;;;;;;12.88;2.42;;;;;;;4.85;100.00;94836.31;5047588;28;20037;-75
2022/11/24 01:17:20;;;;;;;5.38;2.20;;;;;;;4.82;100.00;94829.75;5040815;28;20037;-74
2022/11/24 01:19:47;;;;;;;14.45;2.95;;;;;;;4.83;100.00;94836.56;5043575;28;20041;-74
2022/11/24 01:22:14;;;;;;;12.07;3.03;;;;;;;4.84;100.00;94842.53;5039461;28;20529;-75
2022/11/24 01:24:40;;;;;;;9.80;2.72;;;;;;;4.71;100.00;94854.16;5035208;28;20421;-75
2022/11/24 01:27:06;;;;;;;10.82;2.40;;;;;;;4.68;100.00;94850.25;5045067;28;20037;-75
2022/11/24 01:29:31;;;;;;;11.63;2.22;;;;;;;4.69;100.00;94857.03;5050903;28;20060;-75
2022/11/24 01:31:57;;;;;;;7.82;1.85;;;;;;;4.64;100.00;94864.81;5043279;28;20507;-75
2022/11/24 01:34:22;;;;;;;9.25;2.53;;;;;;;4.74;100.00;94868.53;5050854;28;20052;-75
2022/11/24 01:36:48;;;;;;;7.88;1.95;;;;;;;4.76;100.00;94861.28;5047395;28;20033;-74
2022/11/24 01:39:13;;;;;;;14.15;2.22;;;;;;;4.75;100.00;94862.28;5050700;28;20587;-75
2022/11/24 01:41:39;;;;;;;7.88;2.08;;;;;;;4.67;100.00;94859.09;5050016;28;20047;-75
2022/11/24 01:44:23;;;;;;;9.43;2.13;;;;;;;4.66;100.00;94873.16;5045001;28;20504;-75
2022/11/24 01:46:54;;;;;;;9.48;2.08;;;;;;;4.65;100.00;94876.78;5032445;28;20411;-75
2022/11/24 01:49:34;;;;;;;6.85;1.95;;;;;;;4.61;100.00;94875.75;5051043;28;20048;-75
2022/11/24 01:52:14;;;;;;;11.55;2.25;;;;;;;4.62;100.00;94882.50;5035400;28;20099;-75
2022/11/24 01:54:45;;;;;;;6.43;2.20;;;;;;;4.61;100.00;94886.16;5049517;28;20506;-75
2022/11/24 01:57:20;;;;;;;10.32;2.42;;;;;;;4.65;100.00;94887.22;5043514;28;20471;-76
2022/11/24 01:59:49;;;;;;;9.48;2.35;;;;;;;4.71;100.00;94900.31;5050118;28;20036;-75
2022/11/24 02:02:15;;;;;;;5.90;2.33;;;;;;;4.67;100.00;94903.41;5040983;28;20072;-76
2022/11/24 02:04:42;;;;;;;10.35;1.90;;;;;;;4.56;100.00;94904.34;5048757;28;20037;-77
2022/11/24 02:07:10;;;;;;;3.05;1.60;;;;;;;4.60;100.00;94905.44;5036922;28;20068;-76
2022/11/24 02:09:44;;;;;;;4.93;2.08;;;;;;;4.63;100.00;94910.16;5040954;28;20052;-75
2022/11/24 02:12:10;;;;;;;7.30;2.50;;;;;;;4.62;100.00;94918.22;5036785;28;20094;-76
2022/11/24 02:14:37;;;;;;;9.45;1.90;;;;;;;4.65;100.00;94920.31;5050343;28;20045;-76
2022/11/24 02:17:02;;;;;;;13.15;2.50;;;;;;;4.69;100.00;94924.78;5037687;28;20057;-75
2022/11/24 02:19:33;;;;;;;5.07;1.83;;;;;;;4.66;100.00;94924.50;5045286;28;20500;-75
2022/11/24 02:22:00;;;;;;;9.98;2.13;;;;;;;4.60;100.00;94926.28;5044042;28;20067;-75
2022/11/24 02:24:38;;;;;;;10.30;1.98;;;;;;;4.62;100.00;94923.44;5049553;28;20045;-75
2022/11/24 02:27:04;;;;;;;4.82;1.50;;;;;;;4.58;100.00;94928.34;5037632;28;20049;-75
2022/11/24 02:29:30;;;;;;;3.90;1.70;;;;;;;4.62;100.00;94929.41;5050055;28;20079;-75
2022/11/24 02:32:01;;;;;;;7.35;1.90;;;;;;;4.58;100.00;94937.97;5049473;28;20048;-75
2022/11/24 02:34:27;;;;;;;6.57;2.08;;;;;;;4.55;100.00;94939.25;5042710;28;20044;-75
2022/11/24 02:36:52;;;;;;;6.47;1.88;;;;;;;4.62;100.00;94945.06;5049680;28;20457;-75
2022/11/24 02:39:18;;;;;;;6.05;2.13;;;;;;;4.61;100.00;94951.31;5048789;28;20036;-76
2022/11/24 02:41:51;;;;;;;4.30;1.63;;;;;;;4.60;100.00;94954.94;5048884;28;20052;-75
2022/11/24 02:44:21;;;;;;;5.22;1.75;;;;;;;4.63;100.00;94954.47;5047153;28;20407;-75
2022/11/24 02:46:46;;;;;;;11.18;2.30;;;;;;;4.69;100.00;94955.28;5035633;28;20042;-75
2022/11/24 02:49:12;;;;;;;13.07;2.67;;;;;;;4.71;100.00;94955.06;5048913;28;20555;-75
2022/11/24 02:51:37;;;;;;;3.13;1.48;;;;;;;4.62;100.00;94958.09;5034677;28;20091;-75
2022/11/24 02:54:03;;;;;;;3.70;1.70;;;;;;;4.57;100.00;94952.84;5043543;28;20041;-75
2022/11/24 02:56:28;;;;;;;5.97;1.35;;;;;;;4.63;100.00;94961.50;5042149;28;20049;-75
2022/11/24 02:58:54;;;;;;;4.50;1.70;;;;;;;4.61;100.00;94956.53;5049092;28;20048;-75
2022/11/24 03:01:19;;;;;;;5.00;2.58;;;;;;;4.58;100.00;94959.59;5045642;28;20056;-75
2022/11/24 03:03:45;;;;;;;10.70;1.77;;;;;;;4.57;100.00;94965.88;5047002;28;20029;-75
2022/11/24 03:06:10;;;;;;;6.72;1.70;;;;;;;4.61;100.00;94969.56;5042484;28;20037;-75
2022/11/24 03:08:36;;;;;;;2.55;1.63;;;;;;;4.58;100.00;94964.03;5049126;28;20565;-75
2022/11/24 03:11:01;;;;;;;6.20;1.80;;;;;;;4.63;100.00;94967.50;5048226;28;20037;-75
2022/11/24 03:13:28;;;;;;;5.10;1.60;;;;;;;4.63;100.00;94971.91;5031770;28;20052;-75
2022/11/24 03:15:53;;;;;;;6.30;1.38;;;;;;;4.56;100.00;94966.88;5047674;28;20041;-75
2022/11/24 03:18:19;;;;;;;4.45;1.48;;;;;;;4.58;100.00;94970.03;5046991;28;20342;-75
2022/11/24 03:20:44;;;;;;;5.15;1.42;;;;;;;4.64;100.00;94978.69;5048039;28;20044;-75
2022/11/24 03:23:10;;;;;;;5.50;2.00;;;;;;;4.59;100.00;94981.25;5045405;28;20079;-75
2022/11/24 03:25:35;;;;;;;4.40;1.75;;;;;;;4.52;100.00;94984.03;5048903;28;20549;-74
2022/11/24 03:28:01;;;;;;;6.75;1.92;;;;;;;4.57;100.00;94984.13;5032167;28;20045;-75
2022/11/24 03:30:27;;;;;;;4.22;1.20;;;;;;;4.59;100.00;94992.47;5036098;28;20042;-75
2022/11/24 03:32:53;;;;;;;5.78;1.80;;;;;;;4.60;100.00;94988.84;5044265;28;20041;-75
2022/11/24 03:35:19;;;;;;;2.30;1.30;;;;;;;4.57;100.00;94986.72;5048118;28;20745;-75
2022/11/24 03:37:45;;;;;;;7.80;1.60;;;;;;;4.44;100.00;94995.69;5049219;28;20041;-75
2022/11/24 03:40:11;;;;;;;6.95;1.73;;;;;;;4.52;100.00;95002.28;5043422;28;20530;-75
2022/11/24 03:42:37;;;;;;;3.13;1.58;;;;;;;4.65;100.00;95001.91;5040075;28;20041;-75
2022/11/24 03:45:02;;;;;;;8.15;1.40;;;;;;;4.60;100.00;95004.47;5046869;28;20040;-75
2022/11/24 03:47:28;;;;;;;3.33;1.30;;;;;;;4.61;100.00;95000.03;5046592;28;20061;-75
2022/11/24 03:49:53;;;;;;;7.22;1.55;;;;;;;4.59;100.00;94995.06;5049303;28;20498;-75
2022/11/24 03:52:19;;;;;;;2.45;1.33;;;;;;;4.64;100.00;94994.31;5036919;28;20045;-76
2022/11/24 03:54:46;;;;;;;7.78;1.42;;;;;;;4.56;100.00;95008.59;5048299;28;20052;-76
2022/11/24 03:57:12;;;;;;;3.47;1.50;;;;;;;4.54;100.00;95010.66;5044033;28;20041;-76
2022/11/24 03:59:38;;;;;;;7.72;1.80;;;;;;;4.60;100.00;95012.28;5045747;28;20107;-76
2022/11/24 04:02:04;;;;;;;5.28;1.48;;;;;;;4.62;100.00;95018.03;5049015;28;20150;-75
2022/11/24 04:04:29;;;;;;;7.15;1.65;;;;;;;4.64;100.00;95016.00;5039375;28;20045;-76
2022/11/24 04:06:55;;;;;;;6.57;1.55;;;;;;;4.59;100.00;95020.34;5050464;28;20517;-75
2022/11/24 04:09:20;;;;;;;3.53;1.27;;;;;;;4.65;100.00;95012.31;5052178;28;20041;-75
2022/11/24 04:14:30;;;;;;;2.17;1.30;;;;;;;4.69;100.00;95023.84;5050161;28;20049;-75
2022/11/24 04:16:56;;;;;;;5.80;1.33;;;;;;;4.60;100.00;95014.91;5048163;28;20518;-76
2022/11/24 04:19:21;;;;;;;10.88;1.73;;;;;;;4.61;100.00;95021.69;5047276;28;20410;-75
2022/11/24 04:21:47;;;;;;;2.78;1.50;;;;;;;4.58;100.00;95016.16;5043354;28;20087;-75
2022/11/24 04:24:13;;;;;;;3.92;1.42;;;;;;;4.61;100.00;95026.91;5049812;28;20041;-75
2022/11/24 04:26:39;;;;;;;3.20;1.40;;;;;;;4.62;100.00;95023.25;5043676;28;20068;-75
2022/11/24 04:29:04;;;;;;;4.97;1.90;;;;;;;4.55;100.00;95022.63;5037465;28;20045;-75
2022/11/24 04:31:30;;;;;;;6.38;1.55;;;;;;;4.55;100.00;95033.06;5049621;28;20131;-74
2022/11/24 04:33:55;;;;;;;10.85;1.90;;;;;;;4.50;100.00;95030.41;5042253;28;20410;-74
2022/11/24 04:36:21;;;;;;;3.55;1.17;;;;;;;4.61;100.00;95032.13;5049410;28;20037;-73
2022/11/24 04:38:47;;;;;;;9.18;1.50;;;;;;;4.55;100.00;95027.84;5035814;28;20033;-74
2022/11/24 04:41:12;;;;;;;4.68;1.42;;;;;;;4.63;100.00;95040.47;5052185;28;20048;-74
2022/11/24 04:43:38;;;;;;;3.97;1.48;;;;;;;4.57;100.00;95041.44;5039827;28;20040;-74
2022/11/24 04:46:03;;;;;;;7.65;1.67;;;;;;;4.58;100.00;95043.00;5039959;28;20076;-74
2022/11/24 04:48:29;;;;;;;6.95;1.30;;;;;;;4.68;100.00;95048.34;5051022;28;20053;-74
2022/11/24 04:50:54;;;;;;;3.13;1.30;;;;;;;4.61;100.00;95047.75;5050458;28;20041;-74
2022/11/24 04:53:20;;;;;;;8.82;1.60;;;;;;;4.60;100.00;95034.97;5049022;28;20045;-74
2022/11/24 04:55:46;;;;;;;6.32;1.50;;;;;;;4.69;100.00;95057.72;5047395;28;20068;-75
2022/11/24 04:58:11;;;;;;;4.82;1.50;;;;;;;4.71;100.00;95056.72;5051779;28;20063;-74
2022/11/24 05:00:37;;;;;;;13.35;1.80;;;;;;;4.74;100.00;95058.81;5050971;28;20045;-75
2022/11/24 05:03:03;;;;;;;8.40;1.48;;;;;;;4.68;100.00;95058.78;5034635;28;20056;-74
2022/11/24 05:05:29;;;;;;;3.63;1.40;;;;;;;4.66;100.00;95060.81;5046869;28;20068;-75
2022/11/24 05:07:54;;;;;;;5.82;1.38;;;;;;;4.74;100.00;95071.84;5050298;28;20048;-75
2022/11/24 05:10:35;;;;;;;7.88;1.52;;;;;;;4.83;100.00;95075.63;5048489;28;20487;-75
2022/11/24 05:13:03;;;;;;;7.40;1.40;;;;;;;4.76;100.00;95077.63;5045788;28;20045;-75
2022/11/24 05:15:29;;;;;;;6.88;2.25;;;;;;;4.74;100.00;95077.06;5039336;28;20052;-75
2022/11/24 05:17:55;;;;;;;3.28;1.70;;;;;;;4.79;100.00;95079.75;5045250;28;20037;-76
2022/11/24 05:20:22;;;;;;;17.13;2.30;;;;;;;4.80;100.00;95086.56;5041773;28;20042;-75
2022/11/24 05:22:48;;;;;;;3.78;1.75;;;;;;;4.79;100.00;95095.41;5051357;28;20442;-75
2022/11/24 05:25:13;;;;;;;9.38;2.20;;;;;;;4.91;100.00;95096.03;5050185;28;20049;-75
2022/11/24 05:27:39;;;;;;;16.80;2.33;;;;;;;4.88;100.00;95096.53;5050937;28;20049;-76
2022/11/24 05:30:06;;;;;;;10.93;2.40;;;;;;;4.95;100.00;95099.75;5046121;28;20048;-74
2022/11/24 05:32:31;;;;;;;8.68;2.10;;;;;;;4.86;100.00;95098.59;5048270;28;20041;-75
2022/11/24 05:34:59;;;;;;;13.63;2.80;;;;;;;4.85;100.00;95099.63;5043244;28;20033;-75
2022/11/24 05:37:26;;;;;;;3.35;1.60;;;;;;;4.89;100.00;95111.16;5044160;28;20110;-75
2022/11/24 05:39:53;;;;;;;6.90;2.03;;;;;;;4.87;100.00;95108.00;5044230;28;20398;-75
2022/11/24 05:45:04;;;;;;;12.25;2.40;;;;;;;4.89;100.00;95113.75;5050193;28;20036;-74
2022/11/24 05:47:30;;;;;;;7.95;1.80;;;;;;;4.94;100.00;95108.63;5044444;28;20045;-74
2022/11/24 05:49:55;;;;;;;10.32;2.08;;;;;;;4.96;100.00;95116.97;5048179;28;20676;-75
2022/11/24 05:52:21;;;;;;;13.27;2.47;;;;;;;4.94;100.00;95113.84;5050811;28;20052;-75
2022/11/24 05:54:47;;;;;;;4.85;1.75;;;;;;;5.00;100.00;95112.84;5037870;28;20533;-76
2022/11/24 05:57:12;;;;;;;14.20;2.05;;;;;;;5.00;100.00;95117.28;5037245;28;20052;-75
2022/11/24 05:59:38;;;;;;;10.05;1.80;;;;;;;5.08;100.00;95121.28;5045947;28;20330;-75
2022/11/24 06:02:03;;;;;;;5.10;1.80;;;;;;;5.06;100.00;95125.94;5050839;28;20080;-75
2022/11/24 06:04:29;;;;;;;11.45;2.60;;;;;;;5.08;100.00;95126.50;5049764;28;20460;-75
2022/11/24 06:06:54;;;;;;;7.85;2.15;;;;;;;5.13;100.00;95127.34;5043416;28;20049;-75
2022/11/24 06:09:20;;;;;;;10.88;2.38;;;;;;;5.06;100.00;95126.75;5050124;28;20650;-75
2022/11/24 06:11:47;;;;;;;9.68;2.40;;;;;;;5.03;100.00;95132.44;5050291;28;20581;-75
2022/11/24 06:14:13;;;;;;;11.43;2.17;;;;;;;5.07;100.00;95137.94;5045582;28;20057;-75
2022/11/24 06:16:38;;;;;;;17.38;2.25;;;;;;;5.05;100.00;95134.81;5046928;28;20037;-75
2022/11/24 06:19:04;;;;;;;14.07;2.20;;;;;;;5.13;100.00;95148.22;5042851;28;20507;-75
2022/11/24 06:21:30;;;;;;;5.65;1.73;;;;;;;5.08;100.00;95149.97;5050208;28;20045;-75
2022/11/24 06:23:56;;;;;;;12.73;2.25;;;;;;;5.05;100.00;95151.25;5049725;28;20045;-75
2022/11/24 06:26:22;;;;;;;11.82;2.20;;;;;;;5.06;100.00;95152.00;5042958;28;20095;-75
2022/11/24 06:28:48;;;;;;;9.63;1.80;;;;;;;5.03;100.00;95159.31;5044047;28;20494;-75
2022/11/24 06:31:13;;;;;;;15.50;2.10;;;;;;;5.08;100.00;95168.22;5049571;28;20106;-75
2022/11/24 06:33:39;;;;;;;15.70;2.22;;;;;;;5.05;100.00;95160.91;5049256;28;20053;-75
2022/11/24 06:36:07;;;;;;;6.80;1.85;;;;;;;5.10;100.00;95163.53;5040384;28;20046;-75
2022/11/24 06:38:34;;;;;;;6.00;1.98;;;;;;;5.08;100.00;95165.63;5042701;28;20041;-75
2022/11/24 06:41:02;;;;;;;19.55;2.05;;;;;;;5.06;100.00;95172.88;5045749;28;20470;-75
2022/11/24 06:43:29;;;;;;;9.30;2.05;;;;;;;5.06;100.00;95172.88;5048191;28;20047;-76
2022/11/24 06:45:56;;;;;;;14.60;2.63;;;;;;;5.09;100.00;95172.44;5049109;28;20041;-75
2022/11/24 06:48:22;;;;;;;12.80;2.17;;;;;;;5.10;100.00;95173.97;5038584;28;20111;-74
2022/11/24 06:50:48;;;;;;;16.48;2.42;;;;;;;5.11;100.00;95189.38;5032089;28;20042;-74
2022/11/24 06:53:14;;;;;;;15.60;2.00;;;;;;;5.07;100.00;95190.13;5047232;28;20098;-75
2022/11/24 06:55:40;;;;;;;9.38;2.25;;;;;;;5.08;100.00;95186.50;5048294;28;20127;-74
2022/11/24 06:58:06;;;;;;;10.23;2.15;;;;;;;5.09;100.00;95188.06;5044260;28;20041;-74
2022/11/24 07:00:32;;;;;;;10.73;2.28;;;;;;;5.13;100.00;95189.13;5049209;28;20051;-73
2022/11/24 07:02:58;;;;;;;10.27;2.50;;;;;;;5.10;100.00;95190.44;5047414;28;20037;-74
2022/11/24 07:05:24;;;;;;;16.52;2.97;;;;;;;5.06;100.00;95194.56;5046523;28;20098;-73
2022/11/24 07:07:49;;;;;;;12.23;2.60;;;;;;;5.08;100.00;95191.69;5043494;28;20045;-72
2022/11/24 07:10:15;;;;;;;12.35;2.25;;;;;;;5.18;100.00;95189.22;5036767;28;20045;-73
2022/11/24 07:12:41;;;;;;;11.75;2.13;;;;;;;5.18;100.00;95191.81;5033437;28;20045;-73
2022/11/24 07:15:07;;;;;;;11.43;2.10;;;;;;;5.22;100.00;95195.53;5044693;28;20037;-73
2022/11/24 07:17:37;;;;;;;9.60;2.50;;;;;;;5.18;100.00;95191.81;5043755;28;20094;-74
2022/11/24 07:20:07;;;;;;;10.82;2.83;;;;;;;5.14;100.00;95185.50;5048877;28;20033;-76
2022/11/24 07:22:33;;;;;;;9.15;2.42;;;;;;;5.27;100.00;95185.16;5049546;28;20041;-73
2022/11/24 07:24:59;;;;;;;11.60;3.15;;;;;;;5.18;100.00;95197.03;5041516;28;20045;-73
2022/11/24 07:27:29;;;;;;;11.63;2.47;;;;;;;5.14;100.00;95195.94;5048187;28;20094;-72
2022/11/24 07:29:54;;;;;;;11.90;2.40;;;;;;;5.07;100.00;95195.34;5034816;28;20049;-72
2022/11/24 07:32:20;;;;;;;13.55;2.70;;;;;;;5.01;100.00;95192.69;5049311;28;20049;-71
2022/11/24 07:34:45;;;;;;;17.33;2.50;;;;;;;5.01;100.00;95197.91;5039578;28;20045;-74
2022/11/24 07:37:11;;;;;;;15.60;2.83;;;;;;;4.97;100.00;95186.38;5051471;28;20041;-74
2022/11/24 07:39:36;;;;;;;16.30;3.97;;;;;;;4.93;100.00;95195.69;5053513;28;20456;-74
2022/11/24 07:42:04;;;;;;;11.88;3.97;;;;;;;5.01;100.00;95200.50;5050979;28;20575;-75
2022/11/24 07:44:29;;;;;;;16.90;3.33;;;;;;;5.12;100.00;95198.03;5055959;28;20059;-74
2022/11/24 07:46:55;;;;;;;16.52;2.88;;;;;;;5.11;100.00;95204.25;5045848;28;20477;-74
2022/11/24 07:49:21;;;;;;;8.30;2.25;;;;;;;5.11;100.00;95206.88;5050764;28;20040;-75
2022/11/24 07:51:47;;;;;;;3.90;1.60;;;;;;;5.26;100.00;95212.28;5053685;28;20040;-74
2022/11/24 07:54:12;;;;;;;12.63;2.53;;;;;;;5.23;100.00;95204.94;5051425;28;20041;-75
2022/11/24 07:56:38;;;;;;;13.95;2.40;;;;;;;5.36;100.00;95206.41;5047115;28;20041;-74
2022/11/24 07:59:03;;;;;;;10.65;2.15;;;;;;;5.41;100.00;95205.66;5044703;28;20045;-74
2022/11/24 08:01:29;;;;;;;7.65;2.08;;;;;;;5.43;100.00;95214.03;5045815;28;20535;-74
2022/11/24 08:03:54;;;;;;;6.32;1.88;;;;;;;5.44;100.00;95197.34;5051939;28;20056;-73
2022/11/24 08:06:20;;;;;;;10.07;1.98;;;;;;;5.55;100.00;95202.44;5049486;28;20506;-74
2022/11/24 08:08:46;;;;;;;13.48;2.30;;;;;;;5.52;100.00;95196.91;5054200;28;20403;-73
2022/11/24 08:11:15;;;;;;;12.38;2.75;;;;;;;5.56;100.00;95192.78;5051170;28;20116;-75
2022/11/24 08:13:41;;;;;;;11.60;2.30;;;;;;;5.61;100.00;95185.00;5053732;28;20071;-74
2022/11/24 08:16:16;;;;;;;9.57;2.30;;;;;;;5.69;100.00;95191.63;5052630;28;20041;-75
2022/11/24 08:18:42;;;;;;;16.65;3.05;;;;;;;5.72;100.00;95199.72;5042787;28;20021;-74
2022/11/24 08:21:12;;;;;;;9.00;2.35;;;;;;;5.70;100.00;95187.94;5061105;28;20049;-75
2022/11/24 08:23:38;;;;;;;4.85;2.20;;;;;;;5.75;100.00;95189.81;5063754;28;20040;-71
2022/11/24 08:26:07;;;;;;;3.50;1.48;;;;;;;5.90;100.00;95192.59;5076849;28;20037;-73
2022/11/24 08:28:33;;;;;;;14.90;2.63;;;;;;;5.98;100.00;95189.56;5073342;28;20045;-72
2022/11/24 08:31:08;;;;;;;12.55;1.85;;;;;;;6.09;100.00;95195.66;5078110;28;20025;-73
2022/11/24 08:33:33;;;;;;;;;;;;;;;6.24;100.00;95192.41;5074549;28;20084;-73
2022/11/24 08:36:04;;;;;;;11.38;1.63;;;;;;;6.36;100.00;95195.59;5076887;28;19916;-74
2022/11/24 08:38:30;;;;;;;9.23;2.42;;;;;;;6.37;100.00;95197.19;5074863;28;20045;-72
2022/11/24 08:41:04;;;;;;;17.00;2.40;;;;;;;6.35;100.00;95199.28;5078378;28;20139;-72
2022/11/24 08:43:30;;;;;;;7.13;1.88;;;;;;;6.43;100.00;95210.31;5066425;28;20048;-72
2022/11/24 08:46:05;;;;;;;17.08;2.17;;;;;;;6.56;100.00;95209.88;5043195;28;20117;-72
2022/11/24 08:48:31;;;;;;;7.35;1.90;;;;;;;6.56;100.00;95209.88;5034668;28;20050;-73
2022/11/24 08:50:57;;;;;;;22.23;3.05;;;;;;;6.52;100.00;95208.81;5038038;28;20494;-72
2022/11/24 08:53:23;;;;;;;9.63;1.90;;;;;;;6.50;100.00;95205.66;5048116;28;20048;-73
2022/11/24 08:55:49;;;;;;;8.40;2.00;;;;;;;6.58;100.00;95202.59;5049957;28;20049;-73
2022/11/24 08:58:15;;;;;;;9.05;1.90;;;;;;;6.60;100.00;95200.50;5046621;28;20465;-73
2022/11/24 09:00:41;;;;;;;10.10;1.90;;;;;;;6.62;100.00;95203.63;5047733;28;20498;-73
2022/11/24 09:03:10;;;;;;;10.45;2.08;;;;;;;6.80;100.00;95201.69;5051669;28;20048;-73
2022/11/24 09:05:36;;;;;;;7.90;1.60;;;;;;;6.88;100.00;95193.34;5035340;28;20452;-73
2022/11/24 09:08:02;;;;;;;8.43;2.20;;;;;;;6.92;100.00;95199.66;5032176;28;20061;-73
2022/11/24 09:10:27;;;;;;;11.35;2.35;;;;;;;6.98;100.00;95206.47;5049939;28;20487;-73
2022/11/24 09:12:53;;;;;;;9.52;1.67;;;;;;;6.82;100.00;95197.75;5050580;28;20494;-73
2022/11/24 09:15:19;;;;;;;12.88;2.42;;;;;;;6.85;100.00;95201.69;5042141;28;20407;-73
2022/11/24 09:17:45;;;;;;;5.30;1.77;;;;;;;6.84;100.00;95202.72;5037140;28;20037;-73
2022/11/24 09:20:11;;;;;;;9.70;2.30;;;;;;;6.83;100.00;95209.03;5051560;28;20051;-73
2022/11/24 09:22:37;;;;;;;9.60;2.17;;;;;;;6.88;100.00;95214.25;5050130;28;20406;-73
2022/11/24 09:25:04;;;;;;;8.98;1.98;;;;;;;6.91;100.00;95211.13;5042441;28;20053;-73
2022/11/24 09:27:30;;;;;;;13.35;2.17;;;;;;;6.97;100.00;95204.09;5049435;28;20475;-73
2022/11/24 09:29:56;;;;;;;7.30;1.98;;;;;;;7.07;100.00;95212.81;5051428;28;20045;-73
2022/11/24 09:32:21;;;;;;;7.10;1.73;;;;;;;7.03;100.00;95208.34;5049148;28;20048;-73
2022/11/24 09:34:49;;;;;;;8.75;1.73;;;;;;;7.06;100.00;95213.84;5038903;28;20040;-73
2022/11/24 09:37:15;;;;;;;9.55;1.98;;;;;;;6.94;100.00;95210.66;5049115;28;20398;-72
2022/11/24 09:39:40;;;;;;;6.40;1.40;;;;;;;6.93;100.00;95206.47;5042555;28;20042;-73
2022/11/24 09:42:14;;;;;;;7.50;1.50;;;;;;;7.02;100.00;95207.53;5031888;28;20045;-73
2022/11/24 09:44:55;;;;;;;6.13;1.50;;;;;;;6.98;100.00;95206.47;5038219;28;20040;-73
2022/11/24 09:47:57;;;;;;;8.65;1.38;;;;;;;7.05;100.00;95201.81;5042877;28;20065;-73
2022/11/24 09:50:32;;;;;;;8.43;1.65;;;;;;;7.16;100.00;95207.09;5026677;28;20119;-73
2022/11/24 09:53:31;;;;;;;11.65;1.75;;;;;;;7.17;100.00;95206.03;5039780;28;20514;-73
2022/11/24 09:56:13;;;;;;;2.58;1.00;;;;;;;7.13;100.00;95191.91;5040590;28;20045;-73
2022/11/24 09:58:47;;;;;;;9.07;1.83;;;;;;;7.17;100.00;95204.22;5030255;28;20080;-72
2022/11/24 10:01:25;;;;;;;6.97;1.83;;;;;;;7.43;100.00;95212.97;5031099;28;20483;-73
2022/11/24 10:03:51;;;;;;;8.05;1.65;;;;;;;7.67;100.00;95212.53;5035028;28;20073;-73
2022/11/24 10:06:29;;;;;;;8.15;1.30;;;;;;;8.26;100.00;95218.38;5041256;28;20098;-72
2022/11/24 10:09:30;;;;;;;8.35;1.70;;;;;;;8.59;100.00;95226.81;5047766;28;20045;-72
2022/11/24 10:12:21;;;;;;;8.43;1.48;;;;;;;8.36;100.00;95226.28;5050268;28;20045;-73
2022/11/24 10:15:14;;;;;;;8.77;1.75;;;;;;;7.78;100.00;95229.06;5048832;28;20044;-74
2022/11/24 10:17:55;;;;;;;11.35;1.48;;;;;;;7.57;100.00;95243.91;5040247;28;20047;-73
2022/11/24 10:20:48;;;;;;;9.65;1.90;;;;;;;7.40;100.00;95242.28;5050180;28;20045;-73
2022/11/24 10:23:53;;;;;;;6.38;1.00;;;;;;;7.15;100.00;95242.94;5050320;28;20044;-72
2022/11/24 10:26:36;;;;;;;5.65;1.10;;;;;;;6.92;100.00;95251.97;5045681;28;20064;-72
2022/11/24 10:29:11;;;;;;;10.23;1.85;;;;;;;6.69;100.00;95261.75;5045925;28;20036;-72
2022/11/24 10:31:41;;;;;;;2.50;1.05;;;;;;;6.45;100.00;95250.06;5050485;28;20098;-72
2022/11/24 10:34:18;;;;;;;3.55;1.15;;;;;;;6.34;100.00;95260.44;5049882;28;20045;-73
2022/11/24 10:36:51;;;;;;;2.30;0.98;;;;;;;6.19;100.00;95258.47;5030939;28;20049;-72
2022/11/24 10:39:34;;;;;;;5.65;2.17;;;;;;;6.07;100.00;95256.00;5029658;28;20481;-73
2022/11/24 10:42:06;;;;;;;8.15;2.03;;;;;;;5.88;100.00;95263.34;5030343;28;20087;-73
2022/11/24 10:44:32;;;;;;;2.60;1.15;;;;;;;5.82;100.00;95273.97;5033979;28;20061;-72
2022/11/24 10:46:57;;;;;;;5.53;1.50;;;;;;;5.67;100.00;95272.00;5038545;28;20467;-73
2022/11/24 10:49:30;;;;;;;7.00;1.30;;;;;;;5.56;100.00;95271.09;5035618;28;20351;-72
2022/11/24 10:52:19;;;;;;;5.00;1.30;;;;;;;5.50;100.00;95287.72;5045198;28;20075;-72
2022/11/24 10:55:00;;;;;;;4.78;1.42;;;;;;;5.27;100.00;95281.69;5040623;28;20053;-75
2022/11/24 10:57:33;;;;;;;14.05;1.48;;;;;;;5.16;100.00;95293.03;5046872;28;20045;-72
2022/11/24 11:00:01;;;;;;;7.80;1.48;;;;;;;4.95;100.00;95292.72;5041411;28;20041;-71
2022/11/24 11:02:39;;;;;;;9.18;2.05;;;;;;;4.89;100.00;95278.03;5049044;28;20045;-71
2022/11/24 11:05:23;;;;;;;7.78;0.98;;;;;;;4.88;100.00;95281.66;5047192;28;20116;-72
2022/11/24 11:07:48;;;;;;;7.20;1.40;;;;;;;4.79;100.00;95294.31;5046032;28;20525;-70
2022/11/24 11:10:22;;;;;;;6.03;1.40;;;;;;;4.76;100.00;95273.16;5049944;28;20049;-72
2022/11/24 11:12:48;;;;;;;4.72;1.38;;;;;;;4.75;100.00;95297.63;5052090;28;20043;-71
2022/11/24 11:15:27;;;;;;;5.93;1.48;;;;;;;4.77;100.00;95290.34;5049593;28;20040;-71
2022/11/24 11:17:56;;;;;;;4.07;1.17;;;;;;;4.68;100.00;95284.75;5044999;28;20498;-71
2022/11/24 11:20:33;;;;;;;2.80;0.85;;;;;;;4.72;100.00;95295.50;5041300;28;20511;-71
2022/11/24 11:23:03;;;;;;;4.40;1.48;;;;;;;4.75;100.00;95297.63;5054057;28;20037;-72
2022/11/24 11:25:34;;;;;;;6.90;1.55;;;;;;;4.75;100.00;95295.03;5053541;28;20045;-72
2022/11/24 11:28:17;;;;;;;3.40;1.10;;;;;;;4.72;100.00;95298.13;5045440;28;20065;-72
2022/11/24 11:30:58;;;;;;;5.90;1.20;;;;;;;4.67;100.00;95289.19;5056879;28;20090;-73
2022/11/24 11:33:29;;;;;;;4.22;1.02;;;;;;;4.68;100.00;95288.16;5057247;28;20052;-73
2022/11/24 11:35:57;;;;;;;10.30;2.15;;;;;;;4.65;100.00;95293.81;5047061;28;20045;-72
2022/11/24 11:38:35;;;;;;;5.65;2.10;;;;;;;4.69;100.00;95294.94;5057426;28;20521;-74
2022/11/24 11:41:01;;;;;;;6.72;1.67;;;;;;;4.76;100.00;95294.00;5057386;28;20049;-74
2022/11/24 11:43:39;;;;;;;8.02;1.75;;;;;;;4.76;100.00;95296.63;5046847;28;20045;-74